Time;durP1;ratioP1;P1;durP2;ratioP2;P2;SDS_P1;SDS_P2;PMS_P1;PMS_P2;Temp;Humidity;BMP_temperature;BMP_pressure;BME280_temperature;BME280_humidity;BME280_pressure;Samples;Min_cycle;Max_cycle;Signal;HPM_P1;HPM_P2
2022/02/18 00:01:16;;;;;;;52.30;28.65;;;;;;;9.38;81.10;100381.69;5077348;28;20061;-84
2022/02/18 00:03:44;;;;;;;43.15;26.15;;;;;;;9.40;80.24;100384.13;5077089;28;20064;-84
2022/02/18 00:06:10;;;;;;;35.97;24.13;;;;;;;9.39;80.59;100383.31;5077120;28;20086;-84
2022/02/18 00:08:38;;;;;;;37.17;23.08;;;;;;;9.45;80.98;100387.47;5077466;28;20044;-84
2022/02/18 00:11:07;;;;;;;32.75;21.05;;;;;;;9.39;80.62;100377.75;5075892;28;20037;-84
2022/02/18 00:13:33;;;;;;;31.55;19.60;;;;;;;9.42;80.83;100385.38;5076593;28;20036;-84
2022/02/18 00:16:01;;;;;;;27.08;19.80;;;;;;;9.40;81.30;100390.47;5076385;28;20092;-83
2022/02/18 00:18:27;;;;;;;27.52;20.20;;;;;;;9.41;81.60;100392.09;5076629;28;20033;-84
2022/02/18 00:20:52;;;;;;;32.10;20.85;;;;;;;9.42;81.44;100382.59;5076865;28;20093;-84
2022/02/18 00:23:23;;;;;;;32.75;21.15;;;;;;;9.44;81.19;100380.28;5077075;28;20088;-84
2022/02/18 00:25:52;;;;;;;32.13;19.80;;;;;;;9.38;81.36;100367.81;5076940;28;20045;-84
2022/02/18 00:28:20;;;;;;;36.17;22.27;;;;;;;9.44;81.45;100374.75;5076383;28;20029;-84
2022/02/18 00:30:48;;;;;;;38.95;25.05;;;;;;;9.41;81.55;100375.44;5076525;28;20059;-84
2022/02/18 00:33:15;;;;;;;42.10;26.67;;;;;;;9.25;81.89;100349.53;5076531;28;20123;-84
2022/02/18 00:35:41;;;;;;;39.85;26.17;;;;;;;9.40;82.10;100356.34;5076362;28;20022;-84
2022/02/18 00:38:07;;;;;;;40.65;25.75;;;;;;;9.47;82.34;100364.06;5076134;28;20119;-84
2022/02/18 00:40:33;;;;;;;44.78;27.95;;;;;;;9.49;82.02;100365.34;5077609;28;20029;-84
2022/02/18 00:43:01;;;;;;;46.80;27.23;;;;;;;9.44;82.00;100358.06;5075714;28;20036;-84
2022/02/18 00:45:27;;;;;;;43.25;26.85;;;;;;;9.43;82.33;100362.03;5073098;28;20021;-84
2022/02/18 00:47:52;;;;;;;43.90;26.08;;;;;;;9.48;82.61;100360.13;5076308;28;20013;-84
2022/02/18 00:50:21;;;;;;;47.92;28.65;;;;;;;9.43;82.23;100350.91;5076858;28;20045;-83
2022/02/18 00:52:47;;;;;;;41.53;24.83;;;;;;;9.52;82.57;100349.94;5076503;28;20092;-84
2022/02/18 00:55:15;;;;;;;49.92;27.65;;;;;;;9.49;82.58;100348.69;5059342;28;20036;-84
2022/02/18 00:57:41;;;;;;;45.50;27.77;;;;;;;9.48;82.88;100347.09;5076042;28;20028;-84
2022/02/18 01:00:09;;;;;;;42.78;27.00;;;;;;;9.44;82.67;100340.59;5076322;28;20032;-84
2022/02/18 01:02:35;;;;;;;42.75;26.25;;;;;;;9.46;83.09;100360.50;5075912;28;20036;-84
2022/02/18 01:05:00;;;;;;;39.20;25.52;;;;;;;9.47;83.15;100361.28;5059988;28;20025;-84
2022/02/18 01:07:26;;;;;;;38.72;24.88;;;;;;;9.48;82.82;100362.91;5076574;28;20047;-84
2022/02/18 01:09:53;;;;;;;38.05;23.75;;;;;;;9.45;82.99;100348.56;5075831;28;20037;-83
2022/02/18 01:12:22;;;;;;;36.05;23.33;;;;;;;9.46;82.93;100343.81;5077298;28;20084;-84
2022/02/18 01:14:49;;;;;;;35.88;22.85;;;;;;;9.51;83.26;100351.09;5076476;28;20033;-84
2022/02/18 01:17:20;;;;;;;35.33;21.58;;;;;;;9.51;82.94;100353.88;5075986;28;20095;-84
2022/02/18 01:19:48;;;;;;;39.05;22.23;;;;;;;9.48;83.29;100352.63;5076053;28;20033;-84
2022/02/18 01:22:14;;;;;;;40.67;22.33;;;;;;;9.43;83.25;100350.91;5075850;28;20048;-83
2022/02/18 01:24:40;;;;;;;34.67;22.92;;;;;;;9.49;83.52;100353.44;5076305;28;20041;-83
2022/02/18 01:27:05;;;;;;;36.55;22.65;;;;;;;9.45;83.59;100342.22;5076442;28;20033;-83
2022/02/18 01:29:39;;;;;;;26.90;19.77;;;;;;;9.50;83.49;100346.72;5076389;28;20068;-83
2022/02/18 01:32:09;;;;;;;32.38;19.50;;;;;;;9.49;83.57;100342.34;5076235;28;20131;-84
2022/02/18 01:34:38;;;;;;;29.10;18.33;;;;;;;9.49;83.55;100334.00;5076128;28;20035;-83
2022/02/18 01:37:05;;;;;;;29.02;19.83;;;;;;;9.51;83.77;100340.00;5076629;28;20017;-84
2022/02/18 01:39:33;;;;;;;36.78;22.38;;;;;;;9.70;82.89;100334.63;5076540;28;20124;-83
2022/02/18 01:42:02;;;;;;;32.67;20.25;;;;;;;9.58;82.73;100326.31;5076176;28;20025;-83
2022/02/18 01:44:37;;;;;;;28.25;17.52;;;;;;;9.58;83.11;100337.44;5059842;28;20021;-84
2022/02/18 01:47:05;;;;;;;25.95;14.55;;;;;;;9.57;83.49;100342.16;5075816;28;20025;-84
2022/02/18 01:49:33;;;;;;;28.48;15.13;;;;;;;9.60;84.13;100338.69;5076503;28;20040;-84
2022/02/18 01:52:02;;;;;;;23.50;14.85;;;;;;;9.53;83.90;100338.47;5076233;28;20021;-84
2022/02/18 01:54:28;;;;;;;21.38;13.20;;;;;;;9.49;84.10;100331.22;5077002;28;20033;-84
2022/02/18 01:56:59;;;;;;;23.20;12.63;;;;;;;9.51;84.38;100334.44;5076648;28;20029;-84
2022/02/18 01:59:27;;;;;;;18.33;11.05;;;;;;;9.51;84.47;100338.03;5076699;28;20035;-84
2022/02/18 02:01:59;;;;;;;19.40;11.57;;;;;;;9.52;84.52;100341.63;5076037;28;20036;-84
2022/02/18 02:04:30;;;;;;;16.55;10.60;;;;;;;9.44;84.21;100329.50;5076629;28;20009;-84
2022/02/18 02:06:58;;;;;;;16.30;10.50;;;;;;;9.64;83.75;100342.41;5074641;28;20029;-83
2022/02/18 02:09:25;;;;;;;19.33;10.55;;;;;;;9.58;83.73;100341.00;5072351;28;20039;-84
2022/02/18 02:11:51;;;;;;;15.40;9.90;;;;;;;9.52;84.16;100341.63;5074626;28;20037;-84
2022/02/18 02:14:20;;;;;;;14.52;9.85;;;;;;;9.51;84.80;100340.81;5076101;28;20028;-84
2022/02/18 02:16:48;;;;;;;11.00;8.45;;;;;;;9.53;85.05;100344.03;5076088;28;20104;-84
2022/02/18 02:19:16;;;;;;;15.68;9.77;;;;;;;9.51;85.06;100328.91;5075642;28;20028;-84
2022/02/18 02:21:55;;;;;;;13.38;8.80;;;;;;;9.54;84.87;100334.56;5075822;28;20025;-84
2022/02/18 02:24:21;;;;;;;12.95;7.78;;;;;;;9.50;84.42;100327.28;5075331;28;20109;-84
2022/02/18 02:26:47;;;;;;;17.02;9.57;;;;;;;9.53;84.94;100332.91;5075648;28;20039;-83
2022/02/18 02:29:14;;;;;;;19.13;9.13;;;;;;;9.52;84.79;100319.38;5075765;28;20124;-84
2022/02/18 02:31:40;;;;;;;13.25;9.52;;;;;;;9.53;84.81;100326.56;5076392;28;20033;-83
2022/02/18 02:34:07;;;;;;;15.93;9.43;;;;;;;9.55;85.08;100329.81;5075621;28;20013;-83
2022/02/18 02:36:35;;;;;;;14.32;9.20;;;;;;;9.55;84.75;100329.81;5075301;28;20025;-83
2022/02/18 02:39:01;;;;;;;18.90;11.13;;;;;;;9.58;84.49;100334.66;5074696;28;20059;-83
2022/02/18 02:41:29;;;;;;;17.73;10.88;;;;;;;9.60;84.26;100343.44;5075718;28;20032;-83
2022/02/18 02:44:00;;;;;;;15.75;9.95;;;;;;;9.58;84.55;100331.88;5077623;28;20064;-83
2022/02/18 02:46:29;;;;;;;16.50;9.63;;;;;;;9.61;84.15;100336.72;5078988;28;20043;-83
2022/02/18 02:48:59;;;;;;;15.27;9.30;;;;;;;9.56;84.16;100326.66;5079362;28;20009;-84
2022/02/18 02:51:25;;;;;;;17.40;10.15;;;;;;;9.55;84.40;100325.06;5079383;28;20004;-84
2022/02/18 02:53:51;;;;;;;17.40;11.65;;;;;;;9.58;85.06;100337.44;5079697;28;20040;-84
2022/02/18 02:56:17;;;;;;;16.83;12.80;;;;;;;9.56;84.89;100331.41;5079384;28;20005;-84
2022/02/18 02:58:42;;;;;;;16.23;11.38;;;;;;;9.56;84.61;100336.97;5079454;28;20028;-84
2022/02/18 03:01:08;;;;;;;19.73;10.70;;;;;;;9.56;85.19;100331.41;5078449;28;20037;-83
2022/02/18 03:03:34;;;;;;;17.42;10.98;;;;;;;9.57;84.90;100338.59;5079956;28;20025;-83
2022/02/18 03:06:01;;;;;;;17.10;10.38;;;;;;;9.60;84.47;100332.34;5078277;28;20025;-83
2022/02/18 03:08:33;;;;;;;14.38;8.95;;;;;;;9.69;84.06;100336.59;5078645;28;20025;-84
2022/02/18 03:11:16;;;;;;;15.13;9.45;;;;;;;9.64;84.77;100339.63;5078700;28;20036;-84
2022/02/18 03:13:48;;;;;;;8.88;7.40;;;;;;;9.57;85.31;100333.03;5078604;28;20021;-83
2022/02/18 03:16:17;;;;;;;17.25;7.75;;;;;;;9.56;85.30;100336.97;5078831;28;20033;-84
2022/02/18 03:18:44;;;;;;;11.70;7.90;;;;;;;9.55;85.22;100340.91;5078923;28;20029;-84
2022/02/18 03:21:10;;;;;;;19.75;10.43;;;;;;;9.49;84.82;100336.78;5079267;28;20529;-84
2022/02/18 03:23:39;;;;;;;16.90;14.15;;;;;;;9.49;84.69;100339.56;5078981;28;20017;-84
2022/02/18 03:26:08;;;;;;;25.05;13.10;;;;;;;9.58;84.36;100346.56;5078419;28;20067;-84
2022/02/18 03:28:36;;;;;;;17.85;12.13;;;;;;;9.55;83.86;100341.72;5078437;28;20032;-84
2022/02/18 03:31:04;;;;;;;24.00;14.13;;;;;;;9.51;83.58;100337.22;5078378;28;20033;-84
2022/02/18 03:33:29;;;;;;;24.77;15.38;;;;;;;9.54;84.14;100347.66;5078560;28;20025;-83
2022/02/18 03:35:58;;;;;;;27.60;19.00;;;;;;;9.54;84.03;100348.44;5078712;28;20009;-84
2022/02/18 03:38:25;;;;;;;32.35;21.67;;;;;;;9.54;83.81;100344.88;5078436;28;20097;-84
2022/02/18 03:40:51;;;;;;;29.95;21.30;;;;;;;9.50;83.77;100343.94;5078497;28;20033;-84
2022/02/18 03:43:16;;;;;;;29.73;16.98;;;;;;;9.52;83.48;100338.84;5078182;28;20016;-84
2022/02/18 03:45:44;;;;;;;22.83;15.82;;;;;;;9.55;82.90;100346.47;5074186;28;20039;-84
2022/02/18 03:48:12;;;;;;;20.30;13.65;;;;;;;9.54;82.95;100339.31;5074089;28;20105;-84
2022/02/18 03:50:40;;;;;;;18.85;13.70;;;;;;;9.55;83.26;100343.69;5077978;28;20013;-84
2022/02/18 03:53:08;;;;;;;19.40;13.20;;;;;;;9.58;83.20;100338.22;5078615;28;20009;-84
2022/02/18 03:55:34;;;;;;;18.27;12.63;;;;;;;9.61;83.11;100345.06;5077491;28;20043;-84
2022/02/18 03:58:00;;;;;;;17.55;12.30;;;;;;;9.58;82.95;100346.56;5074034;28;20044;-84
2022/02/18 04:00:25;;;;;;;17.52;12.10;;;;;;;9.44;82.84;100327.53;5073960;28;20032;-84
2022/02/18 04:02:51;;;;;;;13.48;10.88;;;;;;;9.58;83.25;100349.34;5073719;28;20025;-84
2022/02/18 04:05:16;;;;;;;13.43;9.88;;;;;;;9.62;84.18;100355.00;5074737;28;20039;-83
2022/02/18 04:07:42;;;;;;;20.02;10.95;;;;;;;9.60;83.42;100349.81;5074188;28;20032;-84
2022/02/18 04:10:10;;;;;;;15.90;11.00;;;;;;;9.58;83.67;100346.56;5073964;28;20039;-84
2022/02/18 04:12:35;;;;;;;13.23;11.00;;;;;;;9.65;83.79;100363.47;5076665;28;20045;-84
2022/02/18 04:15:04;;;;;;;11.38;9.98;;;;;;;9.66;83.62;100355.94;5078898;28;20051;-84
2022/02/18 04:17:30;;;;;;;13.98;10.07;;;;;;;9.61;83.76;100345.06;5078467;28;20028;-84
2022/02/18 04:19:55;;;;;;;17.70;11.73;;;;;;;9.65;83.62;100357.09;5079276;28;20001;-84
2022/02/18 04:22:23;;;;;;;15.40;9.80;;;;;;;9.70;83.14;100367.97;5078622;28;20024;-84
2022/02/18 04:24:49;;;;;;;18.45;10.05;;;;;;;9.72;83.88;100357.28;5078543;28;20100;-84
2022/02/18 04:27:18;;;;;;;15.60;10.73;;;;;;;9.64;83.15;100353.50;5078856;28;20033;-84
2022/02/18 04:29:50;;;;;;;31.40;19.27;;;;;;;9.70;83.04;100356.84;5078640;28;20032;-84
2022/02/18 04:32:18;;;;;;;22.53;15.00;;;;;;;9.66;83.27;100355.94;5078336;28;20067;-84
2022/02/18 04:34:44;;;;;;;22.48;14.73;;;;;;;9.69;83.38;100363.53;5078464;28;20023;-84
2022/02/18 04:37:12;;;;;;;24.42;15.68;;;;;;;9.70;83.53;100360.44;5078809;28;20081;-84
2022/02/18 04:39:38;;;;;;;22.98;15.43;;;;;;;9.69;83.70;100360.75;5078801;28;20012;-84
2022/02/18 04:42:04;;;;;;;26.80;16.90;;;;;;;9.67;83.40;100363.09;5078391;28;20021;-84
2022/02/18 04:44:29;;;;;;;24.10;15.65;;;;;;;9.68;83.43;100367.50;5078299;28;20033;-84
2022/02/18 04:46:55;;;;;;;22.83;16.52;;;;;;;9.62;82.52;100363.34;5078694;28;20025;-84
2022/02/18 04:49:21;;;;;;;23.17;17.25;;;;;;;9.70;81.00;100370.75;5078637;28;20117;-84
2022/02/18 04:51:49;;;;;;;28.13;18.30;;;;;;;9.75;80.23;100359.38;5078149;28;20052;-84
2022/02/18 04:54:16;;;;;;;25.30;18.20;;;;;;;9.79;80.15;100368.59;5077520;28;20066;-84
2022/02/18 04:56:44;;;;;;;24.98;18.45;;;;;;;9.77;79.86;100364.56;5077429;28;20033;-85
2022/02/18 04:59:12;;;;;;;27.55;18.77;;;;;;;9.67;79.75;100355.56;5076790;28;20043;-84
2022/02/18 05:01:37;;;;;;;45.47;26.98;;;;;;;9.73;79.55;100370.03;5075991;28;20017;-84
2022/02/18 05:04:03;;;;;;;40.13;25.05;;;;;;;9.74;80.32;100374.41;5076391;28;20090;-83
2022/02/18 05:06:28;;;;;;;30.33;21.35;;;;;;;9.69;80.18;100363.53;5077675;28;20016;-84
2022/02/18 05:08:54;;;;;;;29.98;20.73;;;;;;;9.71;80.36;100366.78;5078123;28;20038;-84
2022/02/18 05:11:20;;;;;;;28.38;19.75;;;;;;;9.73;79.99;100374.78;5077560;28;20040;-84
2022/02/18 05:13:45;;;;;;;26.73;20.23;;;;;;;9.72;80.60;100368.41;5077048;28;20039;-84
2022/02/18 05:16:11;;;;;;;32.10;18.80;;;;;;;9.71;79.94;100367.59;5078299;28;20041;-85
2022/02/18 05:18:39;;;;;;;27.08;16.25;;;;;;;9.70;80.76;100371.53;5077291;28;20009;-84
2022/02/18 05:21:04;;;;;;;26.60;17.85;;;;;;;9.69;80.25;100385.78;5077421;28;20028;-84
2022/02/18 05:23:30;;;;;;;28.02;19.98;;;;;;;9.73;80.08;100392.25;5077886;28;20036;-84
2022/02/18 05:25:56;;;;;;;26.33;19.25;;;;;;;9.83;79.44;100402.06;5075866;28;20029;-83
2022/02/18 05:28:23;;;;;;;27.00;18.75;;;;;;;9.81;80.07;100399.66;5072362;28;20036;-82
2022/02/18 05:30:49;;;;;;;28.80;19.33;;;;;;;9.81;80.07;100407.97;5076543;28;20004;-84
2022/02/18 05:33:15;;;;;;;32.15;18.75;;;;;;;9.83;80.27;100408.44;5077305;28;20057;-84
2022/02/18 05:35:46;;;;;;;26.85;16.92;;;;;;;9.83;80.68;100407.63;5076970;28;20037;-85
2022/02/18 05:38:11;;;;;;;21.63;16.25;;;;;;;9.77;79.98;100415.41;5077394;28;20135;-84
2022/02/18 05:40:37;;;;;;;26.35;18.05;;;;;;;9.75;80.40;100423.28;5077893;28;20045;-84
2022/02/18 05:43:05;;;;;;;19.92;15.75;;;;;;;9.74;80.92;100427.19;5077585;28;20020;-84
2022/02/18 05:45:32;;;;;;;22.48;17.70;;;;;;;9.81;80.59;100433.00;5077911;28;20009;-84
2022/02/18 05:48:00;;;;;;;27.08;17.23;;;;;;;9.85;80.35;100427.53;5076995;28;20049;-84
2022/02/18 05:50:25;;;;;;;29.42;18.00;;;;;;;9.83;81.11;100430.66;5075827;28;20411;-84
2022/02/18 05:52:51;;;;;;;30.08;18.52;;;;;;;9.86;81.45;100432.75;5076881;28;20051;-84
2022/02/18 05:55:19;;;;;;;22.75;19.17;;;;;;;9.85;81.46;100453.34;5070429;28;20029;-84
2022/02/18 05:57:44;;;;;;;28.23;19.60;;;;;;;9.84;81.89;100443.38;5076505;28;20016;-84
2022/02/18 06:00:11;;;;;;;23.52;17.13;;;;;;;9.84;82.14;100446.16;5077094;28;20029;-84
2022/02/18 06:02:39;;;;;;;26.02;17.83;;;;;;;9.87;81.94;100448.25;5076652;28;20036;-84
2022/02/18 06:05:07;;;;;;;23.23;16.13;;;;;;;9.84;82.36;100454.50;5076532;28;20013;-84
2022/02/18 06:07:33;;;;;;;21.25;13.90;;;;;;;9.88;82.21;100461.00;5076960;28;20013;-84
2022/02/18 06:10:02;;;;;;;24.45;14.25;;;;;;;9.96;82.14;100462.84;5077233;28;20024;-84
2022/02/18 06:12:28;;;;;;;23.35;14.25;;;;;;;9.92;81.69;100456.34;5077197;28;20071;-83
2022/02/18 06:14:54;;;;;;;19.63;14.70;;;;;;;9.94;81.82;100459.56;5076626;28;20033;-84
2022/02/18 06:17:20;;;;;;;18.90;12.15;;;;;;;9.95;82.01;100468.72;5076549;28;20052;-84
2022/02/18 06:19:46;;;;;;;18.35;12.55;;;;;;;9.96;82.21;100470.38;5080384;28;20053;-84
2022/02/18 06:22:15;;;;;;;18.45;13.68;;;;;;;9.96;82.71;100479.50;5081367;28;20017;-84
2022/02/18 06:24:42;;;;;;;19.88;13.27;;;;;;;10.04;82.53;100474.97;5080891;28;20125;-85
2022/02/18 06:27:10;;;;;;;18.38;13.88;;;;;;;10.04;81.70;100482.50;5080794;28;20025;-84
2022/02/18 06:29:36;;;;;;;19.52;14.35;;;;;;;10.02;81.89;100485.63;5080858;28;20013;-84
2022/02/18 06:32:03;;;;;;;19.52;13.43;;;;;;;10.02;82.65;100493.16;5080413;28;20009;-84
2022/02/18 06:34:29;;;;;;;17.95;13.73;;;;;;;10.06;81.96;100506.00;5081802;28;20097;-84
2022/02/18 06:37:00;;;;;;;18.38;12.73;;;;;;;10.10;82.38;100511.66;5080675;28;20080;-84
2022/02/18 06:39:25;;;;;;;18.95;12.80;;;;;;;10.20;81.46;100506.41;5080775;28;20017;-84
2022/02/18 06:41:53;;;;;;;21.67;13.20;;;;;;;10.19;81.52;100509.56;5080964;28;20017;-83
2022/02/18 06:44:19;;;;;;;23.67;13.13;;;;;;;10.17;81.55;100514.66;5081104;28;20020;-84
2022/02/18 06:46:44;;;;;;;25.27;13.07;;;;;;;10.19;81.71;100523.47;5080647;28;20124;-84
2022/02/18 06:49:10;;;;;;;26.02;15.52;;;;;;;10.22;81.71;100529.09;5080722;28;20036;-85
2022/02/18 06:51:35;;;;;;;18.23;12.52;;;;;;;10.23;81.66;100529.94;5081164;28;20021;-84
2022/02/18 06:54:04;;;;;;;20.42;12.43;;;;;;;10.28;81.50;100532.50;5080224;28;20021;-84
2022/02/18 06:56:32;;;;;;;33.08;17.20;;;;;;;10.30;81.20;100538.53;5080838;28;20040;-85
2022/02/18 06:58:57;;;;;;;26.35;16.85;;;;;;;10.34;81.29;100538.63;5078351;28;20041;-84
2022/02/18 07:01:23;;;;;;;27.17;17.40;;;;;;;10.36;81.72;100545.44;5080370;28;20040;-85
2022/02/18 07:03:49;;;;;;;24.88;18.17;;;;;;;10.37;81.56;100535.94;5081470;28;20063;-84
2022/02/18 07:06:17;;;;;;;31.08;18.20;;;;;;;10.43;81.10;100547.63;5081553;28;20025;-83
2022/02/18 07:08:43;;;;;;;30.13;19.83;;;;;;;10.45;81.13;100545.31;5081291;28;20021;-83
2022/02/18 07:11:08;;;;;;;34.92;18.15;;;;;;;10.49;81.46;100549.81;5081366;28;20037;-84
2022/02/18 07:13:34;;;;;;;31.33;19.15;;;;;;;10.49;81.28;100541.47;5081299;28;20017;-84
2022/02/18 07:16:00;;;;;;;31.65;18.77;;;;;;;10.52;81.24;100545.50;5081148;28;20036;-82
2022/02/18 07:18:28;;;;;;;25.52;18.08;;;;;;;10.60;81.39;100558.47;5081256;28;20047;-84
2022/02/18 07:20:54;;;;;;;27.30;17.20;;;;;;;10.62;80.93;100572.03;5081293;28;20043;-84
2022/02/18 07:23:20;;;;;;;29.85;16.20;;;;;;;10.68;80.64;100574.19;5081790;28;20085;-83
2022/02/18 07:25:45;;;;;;;24.95;14.43;;;;;;;10.65;80.41;100557.41;5081038;28;20057;-84
2022/02/18 07:28:11;;;;;;;16.90;11.18;;;;;;;10.74;80.00;100564.44;5080967;28;20020;-83
2022/02/18 07:30:41;;;;;;;13.45;10.05;;;;;;;10.85;80.04;100559.16;5079537;28;20009;-83
2022/02/18 07:33:07;;;;;;;17.63;10.38;;;;;;;10.88;79.06;100557.66;5080976;28;20019;-84
2022/02/18 07:35:35;;;;;;;20.45;10.10;;;;;;;10.97;79.20;100561.06;5080763;28;20044;-84
2022/02/18 07:38:02;;;;;;;13.85;10.00;;;;;;;11.01;79.01;100562.78;5078375;28;20057;-83
2022/02/18 07:40:31;;;;;;;17.85;10.57;;;;;;;11.11;78.23;100557.88;5080840;28;20059;-83
2022/02/18 07:42:59;;;;;;;16.30;9.65;;;;;;;11.16;77.91;100558.41;5080805;28;20084;-83
2022/02/18 07:45:27;;;;;;;13.88;8.88;;;;;;;10.80;77.49;100509.31;5719014;22;20060;-82
2022/02/18 07:47:57;;;;;;;10.13;7.72;;;;;;;10.96;77.73;100514.91;5080392;28;20013;-84
2022/02/18 07:50:26;;;;;;;14.13;8.40;;;;;;;11.14;76.93;100526.53;5079182;28;20025;-84
2022/02/18 07:52:53;;;;;;;10.90;8.95;;;;;;;11.17;76.47;100515.47;5077190;28;20013;-84
2022/02/18 07:55:21;;;;;;;13.02;9.43;;;;;;;11.57;75.49;100547.91;5078511;28;20029;-84
2022/02/18 07:57:49;;;;;;;11.80;9.27;;;;;;;11.67;75.67;100539.00;5080327;28;20017;-84
2022/02/18 08:00:17;;;;;;;9.43;7.20;;;;;;;11.52;75.03;100490.47;5080590;28;20017;-85
2022/02/18 08:02:44;;;;;;;16.50;7.93;;;;;;;11.58;73.90;100493.78;5080432;28;20017;-83
2022/02/18 08:07:41;;;;;;;12.27;8.65;;;;;;;12.39;72.88;100562.97;5038488;28;20045;-83
2022/02/18 08:12:43;;;;;;;13.48;7.60;;;;;;;12.72;70.95;100560.47;5065630;22;20034;-85
2022/02/18 08:15:09;;;;;;;12.43;7.40;;;;;;;13.02;71.08;100557.84;5060006;28;20037;-83
2022/02/18 08:17:36;;;;;;;9.45;6.72;;;;;;;13.29;69.02;100563.56;5060297;28;20025;-84
2022/02/18 08:20:05;;;;;;;12.98;7.55;;;;;;;13.56;68.52;100559.63;5060286;28;20044;-82
2022/02/18 08:30:16;;;;;;;9.65;6.88;;;;;;;14.76;63.81;100552.59;5224057;22;20522;-83
2022/02/18 08:32:42;;;;;;;9.85;7.72;;;;;;;15.33;61.79;100559.56;5055092;28;20052;-82
2022/02/18 08:35:08;;;;;;;9.48;7.82;;;;;;;15.18;61.84;100569.88;5042721;28;20025;-83
2022/02/18 08:37:37;;;;;;;11.57;7.55;;;;;;;15.22;61.16;100567.06;5036141;28;20029;-83
2022/02/18 08:45:15;;;;;;;9.15;7.47;;;;;;;15.47;61.96;100570.13;5940995;22;20034;-82
2022/02/18 08:47:45;;;;;;;13.15;7.93;;;;;;;15.82;60.25;100574.44;5042375;28;20029;-82
2022/02/18 08:50:11;;;;;;;15.25;7.80;;;;;;;16.17;58.09;100574.69;5037188;28;20059;-85
2022/02/18 08:52:40;;;;;;;21.23;8.15;;;;;;;16.74;57.00;100569.41;5033683;28;20083;-87
2022/02/18 08:55:07;;;;;;;13.93;6.95;;;;;;;17.56;54.21;100582.84;5033417;28;20034;-89
2022/02/18 08:57:33;;;;;;;11.73;7.28;;;;;;;18.25;53.38;100585.25;5034584;28;20033;-88
2022/02/18 08:59:59;;;;;;;6.03;5.38;;;;;;;17.90;52.73;100577.66;5033717;28;20041;-90
2022/02/18 09:02:24;;;;;;;12.93;6.35;;;;;;;17.74;53.50;100580.88;5035052;28;20025;-89
2022/02/18 09:04:56;;;;;;;11.35;4.95;;;;;;;18.43;50.90;100581.56;5034088;28;20033;-89
2022/02/18 09:07:21;;;;;;;9.27;5.18;;;;;;;18.45;51.47;100579.16;5033594;28;20032;-88
2022/02/18 09:09:47;;;;;;;12.73;6.22;;;;;;;18.90;50.38;100568.13;5033720;28;20033;-88
2022/02/18 09:12:13;;;;;;;7.85;6.13;;;;;;;18.85;50.25;100575.00;5034184;28;20033;-88
2022/02/18 09:14:39;;;;;;;9.20;5.43;;;;;;;18.61;51.31;100576.69;5033564;28;20063;-89
2022/02/18 09:17:05;;;;;;;11.02;5.22;;;;;;;18.85;51.41;100586.28;5034072;28;20029;-88
2022/02/18 09:19:36;;;;;;;20.08;8.15;;;;;;;19.10;49.91;100586.16;5033660;28;20063;-88
2022/02/18 09:22:03;;;;;;;8.13;4.85;;;;;;;19.75;48.80;100578.88;5033714;28;20059;-87
2022/02/18 09:24:38;;;;;;;9.65;5.40;;;;;;;19.79;48.56;100574.00;5033445;28;20025;-87
2022/02/18 09:27:09;;;;;;;10.50;4.50;;;;;;;20.70;45.81;100583.19;5034221;28;20021;-86
2022/02/18 09:29:37;;;;;;;13.20;5.28;;;;;;;21.22;45.04;100592.19;5035211;28;20025;-88
2022/02/18 09:32:07;;;;;;;6.88;4.85;;;;;;;20.89;44.29;100599.53;5033391;28;20032;-87
2022/02/18 09:34:33;;;;;;;9.55;4.40;;;;;;;20.40;46.37;100599.66;5033303;28;20029;-86
2022/02/18 09:36:58;;;;;;;8.88;4.78;;;;;;;20.82;45.17;100591.09;5033642;28;20159;-87
2022/02/18 09:39:25;;;;;;;11.98;5.05;;;;;;;20.15;45.95;100590.63;5033608;28;20429;-88
2022/02/18 09:41:50;;;;;;;14.45;4.55;;;;;;;19.67;47.22;100596.31;5034528;28;20030;-89
2022/02/18 09:44:17;;;;;;;7.53;3.33;;;;;;;19.81;46.69;100594.16;5033543;28;20052;-88
2022/02/18 09:46:45;;;;;;;7.05;3.20;;;;;;;19.25;46.89;100606.63;5033119;28;20152;-88
2022/02/18 09:49:14;;;;;;;5.85;3.30;;;;;;;19.67;45.85;100605.56;5033358;28;20057;-89
2022/02/18 09:51:40;;;;;;;10.07;3.67;;;;;;;19.01;47.11;100608.34;5033688;28;20036;-89
2022/02/18 09:54:07;;;;;;;10.25;3.17;;;;;;;18.71;48.14;100604.06;5032893;28;20033;-89
2022/02/18 09:56:34;;;;;;;7.07;3.65;;;;;;;18.62;49.20;100606.47;5034344;28;20026;-88
2022/02/18 09:59:05;;;;;;;10.45;3.38;;;;;;;18.96;48.95;100597.50;5016703;28;20480;-88
2022/02/18 10:01:32;;;;;;;13.23;4.75;;;;;;;19.69;47.44;100600.31;5033607;28;20036;-88
2022/02/18 10:04:01;;;;;;;8.57;3.22;;;;;;;19.28;46.91;100615.06;5033069;28;20499;-89
2022/02/18 10:06:29;;;;;;;16.10;5.35;;;;;;;18.25;51.53;100616.22;5034501;28;20033;-88
2022/02/18 10:08:56;;;;;;;10.75;5.47;;;;;;;18.24;52.33;100620.25;5035174;28;20035;-88
2022/02/18 10:11:22;;;;;;;12.82;6.00;;;;;;;17.69;53.45;100629.09;5048222;28;20033;-88
2022/02/18 10:13:48;;;;;;;13.43;6.75;;;;;;;17.82;54.05;100626.72;5039838;28;20116;-89
2022/02/18 10:16:19;;;;;;;12.73;6.05;;;;;;;17.95;53.95;100630.75;5034460;28;20056;-89
2022/02/18 10:18:47;;;;;;;18.50;6.05;;;;;;;18.06;52.93;100636.38;5033207;28;20034;-89
2022/02/18 10:21:33;;;;;;;13.18;6.72;;;;;;;17.91;55.30;100629.13;5033522;28;20069;-89
2022/02/18 10:24:12;;;;;;;10.27;6.40;;;;;;;17.64;55.40;100626.69;5034724;28;20048;-89
2022/02/18 10:26:50;;;;;;;14.52;6.95;;;;;;;17.78;54.74;100623.88;5034137;28;20029;-89
2022/02/18 10:29:19;;;;;;;9.30;5.60;;;;;;;17.48;54.11;100629.06;5034154;28;20029;-89
2022/02/18 10:32:09;;;;;;;10.50;4.78;;;;;;;17.52;54.33;100625.06;5032691;28;20125;-86
2022/02/18 10:34:55;;;;;;;13.68;4.50;;;;;;;17.59;53.94;100629.09;5032615;28;20117;-88
2022/02/18 10:37:25;;;;;;;13.13;5.38;;;;;;;17.43;54.53;100632.28;5034177;28;20025;-89
2022/02/18 10:40:08;;;;;;;13.68;4.18;;;;;;;17.50;54.62;100638.69;5032364;28;20041;-88
2022/02/18 10:42:34;;;;;;;10.35;5.43;;;;;;;17.77;54.50;100639.16;5033804;28;20136;-89
2022/02/18 10:45:13;;;;;;;5.32;2.65;;;;;;;17.90;51.99;100645.22;5032853;28;20419;-89
2022/02/18 10:47:40;;;;;;;6.50;2.33;;;;;;;17.64;51.89;100635.13;5032954;28;20120;-89
2022/02/18 10:50:18;;;;;;;6.90;3.10;;;;;;;17.48;52.79;100615.00;5032695;28;20038;-89
2022/02/18 10:53:14;;;;;;;10.90;4.10;;;;;;;17.70;51.27;100636.31;5032673;28;20076;-89
2022/02/18 10:56:00;;;;;;;11.20;4.63;;;;;;;17.87;50.61;100633.94;5032901;28;20037;-88
2022/02/18 10:58:30;;;;;;;4.38;2.35;;;;;;;18.05;49.21;100632.72;5033739;28;20099;-90
2022/02/18 11:01:06;;;;;;;7.07;3.25;;;;;;;17.99;49.16;100613.84;5034447;28;20365;-89
2022/02/18 11:03:32;;;;;;;10.80;4.25;;;;;;;18.61;49.02;100621.78;5032512;28;20025;-90
2022/02/18 11:06:19;;;;;;;6.43;2.40;;;;;;;18.47;49.88;100631.06;5019585;28;20034;-89
2022/02/18 11:08:52;;;;;;;5.93;2.00;;;;;;;18.35;50.36;100625.88;5036011;28;20036;-87
2022/02/18 11:11:18;;;;;;;10.55;3.83;;;;;;;18.22;51.42;100619.88;5055153;28;20034;-83
2022/02/18 11:13:47;;;;;;;5.10;2.38;;;;;;;18.17;51.06;100609.00;5037716;28;20116;-83
2022/02/18 11:16:21;;;;;;;8.40;2.80;;;;;;;18.21;50.40;100573.16;5046111;28;20026;-82
2022/02/18 11:18:52;;;;;;;5.30;3.08;;;;;;;18.79;49.73;100602.00;5040767;28;20056;-87
2022/02/18 11:21:17;;;;;;;6.25;3.33;;;;;;;19.57;48.22;100604.41;5036467;28;20044;-87
2022/02/18 11:23:43;;;;;;;7.32;3.30;;;;;;;19.73;47.88;100595.44;5037184;28;20029;-87
2022/02/18 11:26:20;;;;;;;5.05;2.85;;;;;;;19.73;48.36;100606.72;5036261;28;20368;-89
2022/02/18 11:28:50;;;;;;;4.43;2.80;;;;;;;19.59;48.61;100595.53;5036650;28;20380;-84
2022/02/18 11:31:18;;;;;;;8.88;4.53;;;;;;;19.24;49.33;100560.69;5037053;28;20040;-88
2022/02/18 11:34:09;;;;;;;7.40;3.70;;;;;;;18.92;50.24;100603.19;5036460;28;20471;-86
2022/02/18 11:36:40;;;;;;;8.18;4.13;;;;;;;18.93;51.64;100604.78;5042383;28;20029;-83
2022/02/18 11:39:24;;;;;;;7.72;4.00;;;;;;;18.91;52.02;100595.09;5047236;28;20029;-84